ENKB/KSU METAR and TAF weather

Enter ICAO airport designator
Station Type Date Time Source
ENKB METAR 2022/01/29 12:50 UTC NOAA

ENKB 291250Z 24011KT 4500 RASN SCT006 BKN012 02/01 Q0974 RMK WIND 745FT 25016KT


Station Type Date Time Source
ENKB Decoded METAR 2022/01/29 12:50 UTC NOAA

Kristiansund / Kvernberget, Norway (ENKB) 63-07N 007-50E 62M
Jan 29, 2022 - 07:50 AM EST / 2022.01.29 1250 UTC
Wind: from the WSW (240 degrees) at 13 MPH (11 KT):0
Visibility: 2 mile(s):0
Sky conditions: mostly cloudy
Weather: rain, snow
Temperature: 35 F (2 C)
Windchill: 26 F (-3 C):1
Dew Point: 33 F (1 C)
Relative Humidity: 93%
Pressure (altimeter): 28.76 in. Hg (0974 hPa)
ob: ENKB 291250Z 24011KT 4500 RASN SCT006 BKN012 02/01 Q0974 RMK WIND 745FT 25016KT
cycle: 13

Station Type Date Time Source
ENKB TAF 2010/02/05 07:50 UTC NOAA

METAR ENKB 050750Z 15011KT 110V200 9999 SCT055 BKN070 03/M05 Q1007

Example: see airport list